createdAt,value
2017-04-02T00:00:37.211Z,99.28
2017-04-02T00:01:37.921Z,99.76
2017-04-02T00:02:38.644Z,99.76
2017-04-02T00:03:39.364Z,99.85
2017-04-02T00:04:40.048Z,99.95
2017-04-02T00:05:40.726Z,99.99
2017-04-02T00:06:41.460Z,99.99
2017-04-02T00:07:42.137Z,99.99
2017-04-02T00:08:42.824Z,99.85
2017-04-02T00:09:43.513Z,99.99
2017-04-02T00:10:44.293Z,99.99
2017-04-02T00:11:44.993Z,99.99
2017-04-02T00:12:45.695Z,99.99
2017-04-02T00:13:46.367Z,99.99
2017-04-02T00:14:47.052Z,99.99
2017-04-02T00:15:47.752Z,99.99
2017-04-02T00:16:48.431Z,99.99
2017-04-02T00:17:49.119Z,99.99
2017-04-02T00:18:49.822Z,99.99
2017-04-02T00:19:50.487Z,99.99
2017-04-02T00:20:51.172Z,99.99
2017-04-02T00:21:51.862Z,99.99
2017-04-02T00:22:52.544Z,99.99
2017-04-02T00:23:53.212Z,99.99
2017-04-02T00:24:53.906Z,99.99
2017-04-02T00:25:54.588Z,99.99
2017-04-02T00:26:55.314Z,99.99
2017-04-02T00:27:56.038Z,99.99
2017-04-02T00:28:56.734Z,99.9
2017-04-02T00:29:57.429Z,99.99
2017-04-02T00:30:58.135Z,99.99
2017-04-02T00:31:58.824Z,99.99
2017-04-02T00:32:59.531Z,99.99
2017-04-02T00:34:00.227Z,99.99
2017-04-02T00:35:00.926Z,99.99
2017-04-02T00:36:01.616Z,99.99
2017-04-02T00:37:02.316Z,99.99
2017-04-02T00:38:03.020Z,99.99
2017-04-02T00:39:03.707Z,99.99
2017-04-02T00:40:04.411Z,99.99
2017-04-02T00:41:05.106Z,99.99
2017-04-02T00:42:05.793Z,99.99
2017-04-02T00:43:06.484Z,99.99
2017-04-02T00:44:07.185Z,99.99
2017-04-02T00:45:07.860Z,99.99
2017-04-02T00:46:08.548Z,99.99
2017-04-02T00:47:09.227Z,99.99
2017-04-02T00:48:09.920Z,99.99
2017-04-02T00:49:10.600Z,99.99
2017-04-02T00:50:11.272Z,99.99
2017-04-02T00:51:11.950Z,99.99
2017-04-02T00:52:12.618Z,99.99
2017-04-02T00:53:13.314Z,99.99
2017-04-02T00:54:14.002Z,99.99
2017-04-02T00:55:14.694Z,99.99
2017-04-02T00:56:15.380Z,99.99
2017-04-02T00:57:16.092Z,99.99
2017-04-02T00:58:16.774Z,99.99
2017-04-02T00:59:17.470Z,99.99
2017-04-02T01:00:18.170Z,99.99
2017-04-02T01:01:18.864Z,99.99
2017-04-02T01:02:19.539Z,99.99
2017-04-02T01:03:20.238Z,99.99
2017-04-02T01:04:20.912Z,99.99
2017-04-02T01:05:21.612Z,99.99
2017-04-02T01:06:22.328Z,99.99
2017-04-02T01:07:23.023Z,99.99
2017-04-02T01:08:23.764Z,99.99
2017-04-02T01:09:24.482Z,99.99
2017-04-02T01:10:25.179Z,99.99
2017-04-02T01:11:25.862Z,99.99
2017-04-02T01:12:26.562Z,99.99
2017-04-02T01:13:27.261Z,99.99
2017-04-02T01:14:27.967Z,99.99
2017-04-02T01:15:28.657Z,99.99
2017-04-02T01:16:29.330Z,99.99
2017-04-02T01:17:30.042Z,99.99
2017-04-02T01:18:30.733Z,99.99
2017-04-02T01:19:31.420Z,99.99
2017-04-02T01:20:32.104Z,99.99
2017-04-02T01:21:32.790Z,99.99
2017-04-02T01:22:33.505Z,99.99
2017-04-02T01:23:34.201Z,99.99
2017-04-02T01:24:34.880Z,99.99
2017-04-02T01:25:35.601Z,99.99
2017-04-02T01:26:36.276Z,99.99
2017-04-02T01:27:36.962Z,99.99
2017-04-02T01:28:37.663Z,99.99
2017-04-02T01:29:38.341Z,99.99
2017-04-02T01:30:39.019Z,99.99
2017-04-02T01:31:39.696Z,99.99
2017-04-02T01:32:40.381Z,99.99
2017-04-02T01:33:41.074Z,99.99
2017-04-02T01:34:41.763Z,99.99
2017-04-02T01:35:42.441Z,99.99
2017-04-02T01:36:43.178Z,99.99
2017-04-02T01:37:43.877Z,99.99
2017-04-02T01:38:44.582Z,99.99
2017-04-02T01:39:45.278Z,99.99
2017-04-02T01:40:45.992Z,99.99
2017-04-02T01:41:46.666Z,99.99
2017-04-02T01:42:47.378Z,99.99
2017-04-02T01:43:48.060Z,99.99
2017-04-02T01:44:48.814Z,99.99
2017-04-02T01:45:49.502Z,99.85
2017-04-02T01:46:50.176Z,99.99
2017-04-02T01:47:50.892Z,99.99
2017-04-02T01:48:51.583Z,99.99
2017-04-02T01:49:52.262Z,99.99
2017-04-02T01:50:52.970Z,99.99
2017-04-02T01:51:53.666Z,99.99
2017-04-02T01:52:54.359Z,99.99
2017-04-02T01:53:55.064Z,99.85
2017-04-02T01:54:55.798Z,99.37
2017-04-02T01:55:56.489Z,99.28
2017-04-02T01:56:57.198Z,99.57
2017-04-02T01:57:57.902Z,99.47
2017-04-02T01:58:58.589Z,99.47
2017-04-02T01:59:59.286Z,99.47
2017-04-02T02:00:59.966Z,99.37
2017-04-02T02:02:00.704Z,99.57
2017-04-02T02:03:01.416Z,99.28
2017-04-02T02:04:02.117Z,99.08
2017-04-02T02:05:02.785Z,99.18
2017-04-02T02:06:03.472Z,99.28
2017-04-02T02:07:04.155Z,98.42
2017-04-02T02:08:04.847Z,98.32
2017-04-02T02:09:05.534Z,98.23
2017-04-02T02:10:06.216Z,98.8
2017-04-02T02:11:06.901Z,98.61
2017-04-02T02:12:07.600Z,99.28
2017-04-02T02:13:08.326Z,98.61
2017-04-02T02:14:09.119Z,98.52
2017-04-02T02:15:09.814Z,98.52
2017-04-02T02:16:10.489Z,98.42
2017-04-02T02:17:11.179Z,98.61
2017-04-02T02:18:11.857Z,98.9
2017-04-02T02:19:12.580Z,99.28
2017-04-02T02:20:13.268Z,99.08
2017-04-02T02:21:13.962Z,99.18
2017-04-02T02:22:14.631Z,99.08
2017-04-02T02:23:15.315Z,98.99
2017-04-02T02:24:16.004Z,99.37
2017-04-02T02:25:16.679Z,98.99
2017-04-02T02:26:17.375Z,99.47
2017-04-02T02:27:18.061Z,99.57
2017-04-02T02:28:18.748Z,99.57
2017-04-02T02:29:19.431Z,99.76
2017-04-02T02:30:20.125Z,99.57
2017-04-02T02:31:20.812Z,99.66
2017-04-02T02:32:21.500Z,98.99
2017-04-02T02:33:22.195Z,99.76
2017-04-02T02:34:22.899Z,99.28
2017-04-02T02:35:23.579Z,98.9
2017-04-02T02:36:24.250Z,99.28
2017-04-02T02:37:24.932Z,99.28
2017-04-02T02:38:25.640Z,99.66
2017-04-02T02:39:26.327Z,99.71
2017-04-02T02:40:27.007Z,99.99
2017-04-02T02:41:27.693Z,99.99
2017-04-02T02:42:28.373Z,99.99
2017-04-02T02:43:29.093Z,99.99
2017-04-02T02:44:29.781Z,99.99
2017-04-02T02:45:30.460Z,99.99
2017-04-02T02:46:31.161Z,99.99
2017-04-02T02:47:31.856Z,99.99
2017-04-02T02:48:32.544Z,99.99
2017-04-02T02:49:33.235Z,99.99
2017-04-02T02:50:33.949Z,99.99
2017-04-02T02:51:34.615Z,99.99
2017-04-02T02:52:35.300Z,99.99
2017-04-02T02:53:36.012Z,99.99
2017-04-02T02:54:36.705Z,99.99
2017-04-02T02:55:37.356Z,99.99
2017-04-02T02:56:38.048Z,99.99
2017-04-02T02:57:38.760Z,99.99
2017-04-02T02:58:39.461Z,99.99
2017-04-02T02:59:40.151Z,99.99
2017-04-02T03:00:40.841Z,99.99
2017-04-02T03:01:41.525Z,99.99
2017-04-02T03:02:42.195Z,99.99
2017-04-02T03:03:42.890Z,99.99
2017-04-02T03:04:43.567Z,99.99
2017-04-02T03:05:44.266Z,99.99
2017-04-02T03:06:44.939Z,99.99
2017-04-02T03:07:45.628Z,99.99
2017-04-02T03:08:46.305Z,99.99
2017-04-02T03:09:47.001Z,99.99
2017-04-02T03:10:47.691Z,99.99
2017-04-02T03:11:48.377Z,99.99
2017-04-02T03:12:49.083Z,99.99
2017-04-02T03:13:49.768Z,99.99
2017-04-02T03:14:50.462Z,99.99
2017-04-02T03:15:51.195Z,99.99
2017-04-02T03:16:51.888Z,99.99
2017-04-02T03:17:52.561Z,99.99
2017-04-02T03:18:53.262Z,99.99
2017-04-02T03:19:53.956Z,99.99
2017-04-02T03:20:54.647Z,99.99
2017-04-02T03:21:55.348Z,99.99
2017-04-02T03:22:56.048Z,99.99
2017-04-02T03:23:56.743Z,99.99
2017-04-02T03:24:57.438Z,99.99
2017-04-02T03:25:58.123Z,99.99
2017-04-02T03:26:58.811Z,99.99
2017-04-02T03:27:59.492Z,99.99
2017-04-02T03:29:00.178Z,99.99
2017-04-02T03:30:00.858Z,99.99
2017-04-02T03:31:01.557Z,99.99
2017-04-02T03:32:02.230Z,99.99
2017-04-02T03:33:02.917Z,99.99
2017-04-02T03:34:03.614Z,99.99
2017-04-02T03:35:04.333Z,99.99
2017-04-02T03:36:05.003Z,99.99
2017-04-02T03:37:05.700Z,99.99
2017-04-02T03:38:06.387Z,99.99
2017-04-02T03:39:07.061Z,99.99
2017-04-02T03:40:07.766Z,99.99
2017-04-02T03:41:08.443Z,99.99
2017-04-02T03:42:09.115Z,99.99
2017-04-02T03:43:09.783Z,99.99
2017-04-02T03:44:10.468Z,99.99
2017-04-02T03:45:11.146Z,99.99
2017-04-02T03:46:11.840Z,99.99
2017-04-02T03:47:12.522Z,99.99
2017-04-02T03:48:13.223Z,99.99
2017-04-02T03:49:13.931Z,99.99
2017-04-02T03:50:14.633Z,99.99
2017-04-02T03:51:15.322Z,99.99
2017-04-02T03:52:16.001Z,99.99
2017-04-02T03:53:16.690Z,99.99
2017-04-02T03:54:17.370Z,99.99
2017-04-02T03:55:18.071Z,99.99
2017-04-02T03:56:18.734Z,99.99
2017-04-02T03:57:19.415Z,99.99
2017-04-02T03:58:20.103Z,99.99
2017-04-02T03:59:20.785Z,99.99
2017-04-02T04:00:21.480Z,99.99
2017-04-02T04:01:22.168Z,99.99
2017-04-02T04:02:22.855Z,99.99
2017-04-02T04:03:23.552Z,99.99
2017-04-02T04:04:24.244Z,99.99
2017-04-02T04:05:24.934Z,99.99
2017-04-02T04:06:25.631Z,99.99
2017-04-02T04:07:26.309Z,99.99
2017-04-02T04:08:26.999Z,99.99
2017-04-02T04:09:27.687Z,99.99
2017-04-02T04:10:28.388Z,99.99
2017-04-02T04:11:29.082Z,99.99
2017-04-02T04:12:29.776Z,99.99
2017-04-02T04:13:30.480Z,99.99
2017-04-02T04:14:31.163Z,99.99
2017-04-02T04:15:31.854Z,99.99
2017-04-02T04:16:32.555Z,99.99
2017-04-02T04:17:33.237Z,99.99
2017-04-02T04:18:33.921Z,99.99
2017-04-02T04:19:34.603Z,99.99
2017-04-02T04:20:35.291Z,99.99
2017-04-02T04:21:35.977Z,99.99
2017-04-02T04:22:36.677Z,99.99
2017-04-02T04:23:37.362Z,99.99
2017-04-02T04:24:38.048Z,99.99
2017-04-02T04:25:38.735Z,99.99
2017-04-02T04:26:39.412Z,99.99
2017-04-02T04:27:40.095Z,99.99
2017-04-02T04:28:40.785Z,99.99
2017-04-02T04:29:41.480Z,99.99
2017-04-02T04:30:42.170Z,99.8
2017-04-02T04:31:42.849Z,99.99
2017-04-02T04:32:43.528Z,99.99
2017-04-02T04:33:44.205Z,99.99
2017-04-02T04:34:44.927Z,99.7
2017-04-02T04:35:45.591Z,99.22
2017-04-02T04:36:46.266Z,99.22
2017-04-02T04:37:46.948Z,99.99
2017-04-02T04:38:47.619Z,99.6
2017-04-02T04:39:48.299Z,99.32
2017-04-02T04:40:48.985Z,99.8
2017-04-02T04:41:49.687Z,99.8
2017-04-02T04:42:50.379Z,99.99
2017-04-02T04:43:51.096Z,99.41
2017-04-02T04:44:51.781Z,99.99
2017-04-02T04:45:52.483Z,99.99
2017-04-02T04:46:53.164Z,99.99
2017-04-02T04:47:53.841Z,99.99
2017-04-02T04:48:54.537Z,99.99
2017-04-02T04:49:55.206Z,99.99
2017-04-02T04:50:55.895Z,99.99
2017-04-02T04:51:56.585Z,99.99
2017-04-02T04:52:57.268Z,99.99
2017-04-02T04:53:57.957Z,99.99
2017-04-02T04:54:58.637Z,99.99
2017-04-02T04:55:59.321Z,99.99
2017-04-02T04:57:00.014Z,99.99
2017-04-02T04:58:00.696Z,99.99
2017-04-02T04:59:01.385Z,99.99
2017-04-02T05:00:02.060Z,99.99
2017-04-02T05:01:02.750Z,99.99
2017-04-02T05:02:03.437Z,99.99
2017-04-02T05:03:04.138Z,99.99
2017-04-02T05:04:04.834Z,99.99
2017-04-02T05:05:05.543Z,99.99
2017-04-02T05:06:06.234Z,99.99
2017-04-02T05:07:06.928Z,99.99
2017-04-02T05:08:07.628Z,99.99
2017-04-02T05:09:08.338Z,99.99
2017-04-02T05:10:09.015Z,99.99
2017-04-02T05:11:09.732Z,99.99
2017-04-02T05:12:10.427Z,99.99
2017-04-02T05:13:11.130Z,99.99
2017-04-02T05:14:11.830Z,99.99
2017-04-02T05:15:12.491Z,99.99
2017-04-02T05:16:13.174Z,99.99
2017-04-02T05:17:13.870Z,99.99
2017-04-02T05:18:14.545Z,99.99
2017-04-02T05:19:15.221Z,99.99
2017-04-02T05:20:15.945Z,99.99
2017-04-02T05:21:16.626Z,99.99
2017-04-02T05:22:17.354Z,99.99
2017-04-02T05:23:18.064Z,99.99
2017-04-02T05:24:18.751Z,99.99
2017-04-02T05:25:19.438Z,99.99
2017-04-02T05:26:20.154Z,99.99
2017-04-02T05:27:20.866Z,99.99
2017-04-02T05:28:21.579Z,99.99
2017-04-02T05:29:22.266Z,99.99
2017-04-02T05:30:22.964Z,99.99
2017-04-02T05:31:23.665Z,99.99
2017-04-02T05:32:24.383Z,99.99
2017-04-02T05:33:25.057Z,99.99
2017-04-02T05:34:25.739Z,99.99
2017-04-02T05:35:26.449Z,99.99
2017-04-02T05:36:27.158Z,99.89
2017-04-02T05:37:27.849Z,99.8
2017-04-02T05:38:28.542Z,99.99
2017-04-02T05:39:29.216Z,99.8
2017-04-02T05:40:29.911Z,99.99
2017-04-02T05:41:30.605Z,99.8
2017-04-02T05:42:31.281Z,99.99
2017-04-02T05:43:31.966Z,99.8
2017-04-02T05:44:32.649Z,99.13
2017-04-02T05:45:33.349Z,99.13
2017-04-02T05:46:34.038Z,99.8
2017-04-02T05:47:34.735Z,99.32
2017-04-02T05:48:35.428Z,98.94
2017-04-02T05:49:36.120Z,99.51
2017-04-02T05:50:36.811Z,99.99
2017-04-02T05:51:37.495Z,99.13
2017-04-02T05:52:38.186Z,99.22
2017-04-02T05:53:38.900Z,98.56
2017-04-02T05:54:39.587Z,99.04
2017-04-02T05:55:40.304Z,99.04
2017-04-02T05:56:40.980Z,98.56
2017-04-02T05:57:41.688Z,99.13
2017-04-02T05:58:42.376Z,98.85
2017-04-02T05:59:43.064Z,98.56
2017-04-02T06:00:43.753Z,98.94
2017-04-02T06:01:44.438Z,98.94
2017-04-02T06:02:45.124Z,99.41
2017-04-02T06:03:45.838Z,98.56
2017-04-02T06:04:46.543Z,97.8
2017-04-02T06:05:47.235Z,97.32
2017-04-02T06:06:47.931Z,96.75
2017-04-02T06:07:48.638Z,96.56
2017-04-02T06:08:49.330Z,96.17
2017-04-02T06:09:50.026Z,96.46
2017-04-02T06:10:50.732Z,96.56
2017-04-02T06:11:51.435Z,96.36
2017-04-02T06:12:52.132Z,95.65
2017-04-02T06:13:52.828Z,95.46
2017-04-02T06:14:53.525Z,95.65
2017-04-02T06:15:54.207Z,95.46
2017-04-02T06:16:54.909Z,95.75
2017-04-02T06:17:55.599Z,95.46
2017-04-02T06:18:56.313Z,95.17
2017-04-02T06:19:57.011Z,95.08
2017-04-02T06:20:57.696Z,94.89
2017-04-02T06:21:58.384Z,93.46
2017-04-02T06:22:59.079Z,93.08
2017-04-02T06:23:59.800Z,93.84
2017-04-02T06:25:00.486Z,93.46
2017-04-02T06:26:01.190Z,93.65
2017-04-02T06:27:01.869Z,93.36
2017-04-02T06:28:02.561Z,93.65
2017-04-02T06:29:03.249Z,94.32
2017-04-02T06:30:03.947Z,93.74
2017-04-02T06:31:04.646Z,93.84
2017-04-02T06:32:05.417Z,94.22
2017-04-02T06:33:06.099Z,94.98
2017-04-02T06:34:06.771Z,94.89
2017-04-02T06:35:07.467Z,94.89
2017-04-02T06:36:08.148Z,95.17
2017-04-02T06:37:08.819Z,94.12
2017-04-02T06:38:09.489Z,93.7
2017-04-02T06:39:10.184Z,91.55
2017-04-02T06:40:10.881Z,89.45
2017-04-02T06:41:11.600Z,87.58
2017-04-02T06:42:12.285Z,86.05
2017-04-02T06:43:13.007Z,84.85
2017-04-02T06:44:13.703Z,83.33
2017-04-02T06:45:14.399Z,82.89
2017-04-02T06:46:15.097Z,81.55
2017-04-02T06:47:15.781Z,81.16
2017-04-02T06:48:16.482Z,80.79
2017-04-02T06:49:17.166Z,80.11
2017-04-02T06:50:17.857Z,79.49
2017-04-02T06:51:18.561Z,79.29
2017-04-02T06:52:19.277Z,77.38
2017-04-02T06:53:19.989Z,77.9
2017-04-02T06:54:20.700Z,77.13
2017-04-02T06:55:21.392Z,76.56
2017-04-02T06:56:22.120Z,76.94
2017-04-02T06:57:22.792Z,76.46
2017-04-02T06:58:23.491Z,75.41
2017-04-02T06:59:24.186Z,74.87
2017-04-02T07:00:24.882Z,74.58
2017-04-02T07:01:25.578Z,73.19
2017-04-02T07:02:26.264Z,72.23
2017-04-02T07:03:26.977Z,72.52
2017-04-02T07:04:27.682Z,71.94
2017-04-02T07:05:28.391Z,71.56
2017-04-02T07:06:29.092Z,70.64
2017-04-02T07:07:29.786Z,69.58
2017-04-02T07:08:30.511Z,69.29
2017-04-02T07:09:31.216Z,68.75
2017-04-02T07:10:31.897Z,67.69
2017-04-02T07:11:32.605Z,68.18
2017-04-02T07:12:33.309Z,68.27
2017-04-02T07:13:33.986Z,67.83
2017-04-02T07:14:34.685Z,67.22
2017-04-02T07:15:35.387Z,67.22
2017-04-02T07:16:36.064Z,67.41
2017-04-02T07:17:36.768Z,66.49
2017-04-02T07:18:37.452Z,66.1
2017-04-02T07:19:38.160Z,65.81
2017-04-02T07:20:38.873Z,66
2017-04-02T07:21:39.596Z,64.95
2017-04-02T07:22:40.297Z,65.81
2017-04-02T07:23:40.992Z,64.59
2017-04-02T07:24:41.694Z,64.4
2017-04-02T07:25:42.401Z,64.5
2017-04-02T07:26:43.104Z,64.02
2017-04-02T07:27:43.827Z,64.4
2017-04-02T07:28:44.545Z,63.83
2017-04-02T07:29:45.237Z,64.02
2017-04-02T07:30:45.971Z,63.54
2017-04-02T07:31:46.661Z,62.87
2017-04-02T07:32:47.389Z,63.06
2017-04-02T07:33:48.074Z,62.87
2017-04-02T07:34:48.778Z,62.87
2017-04-02T07:35:49.482Z,62.68
2017-04-02T07:36:50.207Z,62.61
2017-04-02T07:37:50.928Z,61.94
2017-04-02T07:38:51.640Z,61.65
2017-04-02T07:39:52.376Z,61.08
2017-04-02T07:40:53.084Z,61.17
2017-04-02T07:41:53.824Z,60.91
2017-04-02T07:42:54.583Z,60.24
2017-04-02T07:43:55.289Z,58.32
2017-04-02T07:44:56.000Z,58.7
2017-04-02T07:45:56.859Z,60.05
2017-04-02T07:46:57.556Z,60.24
2017-04-02T07:47:58.271Z,61.58
2017-04-02T07:48:58.995Z,60.91
2017-04-02T07:49:59.727Z,59.22
2017-04-02T07:51:00.425Z,59.22
2017-04-02T07:52:01.124Z,59.5
2017-04-02T07:53:01.856Z,58.89
2017-04-02T07:54:02.571Z,57.93
2017-04-02T07:55:03.266Z,58.13
2017-04-02T07:56:04.003Z,58.35
2017-04-02T07:57:04.717Z,57.29
2017-04-02T07:58:05.433Z,58.61
2017-04-02T07:59:06.142Z,58.61
2017-04-02T08:00:06.832Z,57.84
2017-04-02T08:01:07.552Z,57.93
2017-04-02T08:02:08.260Z,56.91
2017-04-02T08:03:08.971Z,57.1
2017-04-02T08:04:09.683Z,56.91
2017-04-02T08:05:10.394Z,57.1
2017-04-02T08:06:11.117Z,56.81
2017-04-02T08:07:11.837Z,56.91
2017-04-02T08:08:12.560Z,56.91
2017-04-02T08:09:13.281Z,57.55
2017-04-02T08:10:14.002Z,56.88
2017-04-02T08:11:14.727Z,57.84
2017-04-02T08:12:15.444Z,57.29
2017-04-02T08:13:16.166Z,56.98
2017-04-02T08:14:16.885Z,57.55
2017-04-02T08:15:17.591Z,59.16
2017-04-02T08:16:18.295Z,58.39
2017-04-02T08:17:18.996Z,58.42
2017-04-02T08:18:19.706Z,58.77
2017-04-02T08:19:20.413Z,58.29
2017-04-02T08:20:21.135Z,58.89
2017-04-02T08:21:21.858Z,58.22
2017-04-02T08:22:22.579Z,58.7
2017-04-02T08:23:23.309Z,57.93
2017-04-02T08:24:24.052Z,57.81
2017-04-02T08:25:24.767Z,57.75
2017-04-02T08:26:25.483Z,58.77
2017-04-02T08:27:26.200Z,57.71
2017-04-02T08:28:26.902Z,57.65
2017-04-02T08:29:27.608Z,56.68
2017-04-02T08:30:28.319Z,55.15
2017-04-02T08:31:29.041Z,55.91
2017-04-02T08:32:29.743Z,55.34
2017-04-02T08:33:30.454Z,55.37
2017-04-02T08:34:31.153Z,55.37
2017-04-02T08:35:31.863Z,55.46
2017-04-02T08:36:32.542Z,55.27
2017-04-02T08:37:33.273Z,54.99
2017-04-02T08:38:33.995Z,55.37
2017-04-02T08:39:34.717Z,54.99
2017-04-02T08:40:35.430Z,55.01
2017-04-02T08:41:36.157Z,54.14
2017-04-02T08:42:36.867Z,55.15
2017-04-02T08:43:37.564Z,56.27
2017-04-02T08:44:38.275Z,56.92
2017-04-02T08:45:38.992Z,57.9
2017-04-02T08:46:39.690Z,56.85
2017-04-02T08:47:40.442Z,55.73
2017-04-02T08:48:41.180Z,56.11
2017-04-02T08:49:41.901Z,55.44
2017-04-02T08:50:42.623Z,55.63
2017-04-02T08:51:43.349Z,55.51
2017-04-02T08:52:44.056Z,55.15
2017-04-02T08:53:44.794Z,56.18
2017-04-02T08:54:45.516Z,56.08
2017-04-02T08:55:46.243Z,57.04
2017-04-02T08:56:46.980Z,56.18
2017-04-02T08:57:47.714Z,56.92
2017-04-02T08:58:48.458Z,56.63
2017-04-02T08:59:49.150Z,57.04
2017-04-02T09:00:49.856Z,56.37
2017-04-02T09:01:50.612Z,55.99
2017-04-02T09:02:51.386Z,55.79
2017-04-02T09:03:52.101Z,56.08
2017-04-02T09:04:52.805Z,55.32
2017-04-02T09:05:53.544Z,55.51
2017-04-02T09:06:54.267Z,55.47
2017-04-02T09:07:54.971Z,56.22
2017-04-02T09:08:55.693Z,56.89
2017-04-02T09:09:56.431Z,56.98
2017-04-02T09:10:57.137Z,57.75
2017-04-02T09:11:57.856Z,57.63
2017-04-02T09:12:58.568Z,58.59
2017-04-02T09:13:59.280Z,57.72
2017-04-02T09:14:59.972Z,58.87
2017-04-02T09:16:00.685Z,58.52
2017-04-02T09:17:01.393Z,58.23
2017-04-02T09:18:02.102Z,58.81
2017-04-02T09:19:02.809Z,59
2017-04-02T09:20:03.506Z,58.91
2017-04-02T09:21:04.231Z,58.94
2017-04-02T09:22:04.956Z,58.91
2017-04-02T09:23:05.680Z,58.81
2017-04-02T09:24:06.408Z,57.46
2017-04-02T09:25:07.116Z,58.42
2017-04-02T09:26:07.838Z,57.97
2017-04-02T09:27:08.598Z,57.97
2017-04-02T09:28:09.344Z,58.45
2017-04-02T09:29:10.052Z,57.68
2017-04-02T09:30:10.769Z,57.59
2017-04-02T09:31:11.471Z,57.11
2017-04-02T09:32:12.185Z,56.05
2017-04-02T09:33:12.887Z,56.34
2017-04-02T09:34:13.597Z,56.53
2017-04-02T09:35:14.292Z,56.92
2017-04-02T09:36:15.017Z,56.41
2017-04-02T09:37:15.713Z,57.08
2017-04-02T09:38:16.459Z,58.23
2017-04-02T09:39:17.163Z,57.92
2017-04-02T09:40:17.845Z,57.72
2017-04-02T09:41:18.550Z,57.92
2017-04-02T09:42:19.256Z,58.49
2017-04-02T09:43:19.975Z,58.78
2017-04-02T09:44:20.677Z,58.39
2017-04-02T09:45:21.438Z,57.92
2017-04-02T09:46:22.158Z,58.39
2017-04-02T09:47:22.908Z,58.59
2017-04-02T09:48:23.604Z,59.23
2017-04-02T09:49:24.322Z,59.61
2017-04-02T09:50:25.023Z,60
2017-04-02T09:51:25.720Z,60.19
2017-04-02T09:52:26.423Z,60.67
2017-04-02T09:53:27.123Z,60.19
2017-04-02T09:54:27.871Z,60.57
2017-04-02T09:55:28.753Z,60.57
2017-04-02T09:56:29.663Z,60.73
2017-04-02T09:57:30.318Z,60.86
2017-04-02T09:58:31.008Z,60.76
2017-04-02T09:59:31.720Z,61.53
2017-04-02T10:00:32.402Z,61.21
2017-04-02T10:01:33.127Z,61.15
2017-04-02T10:02:33.832Z,61.34
2017-04-02T10:03:34.579Z,61.15
2017-04-02T10:04:35.283Z,60.47
2017-04-02T10:05:36.007Z,60.19
2017-04-02T10:06:36.748Z,60.09
2017-04-02T10:07:37.472Z,60
2017-04-02T10:08:38.184Z,59.23
2017-04-02T10:09:38.887Z,58.75
2017-04-02T10:10:39.615Z,58.37
2017-04-02T10:11:40.310Z,58.37
2017-04-02T10:12:41.036Z,58.75
2017-04-02T10:13:41.774Z,58.75
2017-04-02T10:14:42.485Z,58.46
2017-04-02T10:15:43.184Z,58.46
2017-04-02T10:16:43.882Z,58.37
2017-04-02T10:17:44.593Z,58.56
2017-04-02T10:18:45.284Z,59.42
2017-04-02T10:19:45.984Z,59.42
2017-04-02T10:20:46.677Z,59.9
2017-04-02T10:21:47.413Z,59.13
2017-04-02T10:22:48.170Z,58.94
2017-04-02T10:23:48.917Z,58.84
2017-04-02T10:24:49.828Z,59.33
2017-04-02T10:25:50.829Z,58.84
2017-04-02T10:26:51.448Z,59.13
2017-04-02T10:27:52.187Z,59.42
2017-04-02T10:28:52.898Z,59.42
2017-04-02T10:29:53.622Z,59.06
2017-04-02T10:30:54.341Z,58.75
2017-04-02T10:31:55.070Z,58.65
2017-04-02T10:32:55.777Z,58.65
2017-04-02T10:33:56.510Z,58.27
2017-04-02T10:34:57.218Z,58.56
2017-04-02T10:35:57.929Z,58.17
2017-04-02T10:36:58.988Z,58.84
2017-04-02T10:38:00.495Z,58.08
2017-04-02T10:39:00.870Z,58.08
2017-04-02T10:40:01.636Z,57.43
2017-04-02T10:41:02.349Z,57.63
2017-04-02T10:42:03.051Z,56.96
2017-04-02T10:43:03.775Z,56.19
2017-04-02T10:44:04.464Z,56.57
2017-04-02T10:45:05.169Z,56.07
2017-04-02T10:46:05.895Z,55.87
2017-04-02T10:47:06.591Z,56.09
2017-04-02T10:48:07.316Z,56.38
2017-04-02T10:49:08.020Z,57.06
2017-04-02T10:50:08.715Z,57.06
2017-04-02T10:51:09.437Z,56.86
2017-04-02T10:52:10.148Z,56.09
2017-04-02T10:53:10.893Z,56.19
2017-04-02T10:54:11.600Z,56.12
2017-04-02T10:55:12.313Z,56.31
2017-04-02T10:56:13.103Z,56.41
2017-04-02T10:57:13.761Z,55.93
2017-04-02T10:58:14.473Z,55.74
2017-04-02T10:59:15.197Z,55.33
2017-04-02T11:00:15.908Z,55.13
2017-04-02T11:01:16.622Z,54.37
2017-04-02T11:02:17.335Z,55.23
2017-04-02T11:03:18.033Z,54.94
2017-04-02T11:04:18.744Z,54.68
2017-04-02T11:05:19.470Z,54.58
2017-04-02T11:06:20.201Z,54.68
2017-04-02T11:07:20.934Z,54.49
2017-04-02T11:08:21.645Z,55.35
2017-04-02T11:09:22.366Z,54.97
2017-04-02T11:10:23.084Z,55.16
2017-04-02T11:11:23.786Z,54.49
2017-04-02T11:12:24.493Z,55.16
2017-04-02T11:13:25.209Z,54.88
2017-04-02T11:14:25.912Z,54.97
2017-04-02T11:15:26.622Z,55.07
2017-04-02T11:16:27.343Z,55.23
2017-04-02T11:17:28.047Z,55.26
2017-04-02T11:18:28.811Z,55.62
2017-04-02T11:19:29.547Z,55.8
2017-04-02T11:20:30.258Z,55.52
2017-04-02T11:21:30.975Z,54.75
2017-04-02T11:22:31.708Z,55.13
2017-04-02T11:23:32.432Z,55.42
2017-04-02T11:24:33.150Z,55.23
2017-04-02T11:25:33.893Z,55.9
2017-04-02T11:26:34.598Z,56.38
2017-04-02T11:27:35.341Z,55.9
2017-04-02T11:28:36.067Z,56
